createdAt,value
2018-09-04T18:13:06.967Z,8.90
2018-09-04T18:15:35.503Z,8.93
2018-09-04T18:18:04.095Z,8.38
2018-09-04T18:20:32.598Z,8.40
2018-09-04T18:23:01.183Z,8.98
2018-09-04T18:25:34.462Z,9.03
2018-09-04T18:28:04.397Z,8.65
2018-09-04T18:30:33.212Z,9.23
2018-09-04T18:33:01.801Z,8.93
2018-09-04T18:35:30.311Z,10.50
2018-09-04T18:37:58.862Z,10.23
2018-09-04T18:40:27.715Z,10.20
2018-09-04T18:42:57.128Z,10.00
2018-09-04T18:45:37.001Z,10.88
2018-09-04T18:48:06.075Z,10.20
2018-09-04T18:50:34.682Z,10.08
2018-09-04T18:53:04.614Z,9.85
2018-09-04T18:55:33.389Z,9.88
2018-09-04T18:58:01.986Z,9.40
2018-09-04T19:00:31.924Z,9.33
2018-09-04T19:03:00.761Z,8.75
2018-09-04T19:05:30.689Z,8.75
2018-09-04T19:08:01.193Z,9.25
2018-09-04T19:10:33.154Z,9.25
2018-09-04T19:13:02.346Z,9.23
2018-09-04T19:15:32.858Z,9.28
2018-09-04T19:18:02.601Z,8.70
2018-09-04T19:20:33.129Z,8.93
2018-09-04T19:23:02.872Z,8.75
2018-09-04T19:25:31.455Z,8.75
2018-09-04T19:28:01.014Z,9.20
2018-09-04T19:30:31.964Z,8.43
2018-09-04T19:33:02.644Z,8.43
2018-09-04T19:35:31.932Z,8.95
2018-09-04T19:38:01.599Z,10.10
2018-09-04T19:40:31.075Z,9.25
2018-09-04T19:42:59.678Z,8.85
2018-09-04T19:45:28.968Z,8.70
2018-09-04T19:47:57.615Z,8.75
2018-09-04T19:50:26.204Z,8.88
2018-09-04T19:52:55.071Z,8.63
2018-09-04T19:55:23.580Z,8.48
2018-09-04T19:57:52.793Z,8.40
2018-09-04T20:00:21.934Z,8.18
2018-09-04T20:02:50.559Z,8.45
2018-09-04T20:05:19.141Z,8.08
2018-09-04T20:07:49.602Z,8.43
2018-09-04T20:10:18.364Z,8.30
2018-09-04T20:12:47.853Z,8.15
2018-09-04T20:15:17.235Z,8.43
2018-09-04T20:17:45.786Z,9.10
2018-09-04T20:20:14.288Z,8.80
2018-09-04T20:22:43.840Z,9.58
2018-09-04T20:25:12.644Z,9.75
2018-09-04T20:27:41.179Z,10.00
2018-09-04T20:30:10.317Z,10.60
2018-09-04T20:32:38.875Z,11.38
2018-09-04T20:35:07.644Z,10.25
2018-09-04T20:37:36.242Z,9.80
2018-09-04T20:40:06.035Z,9.73
2018-09-04T20:42:35.047Z,9.60
2018-09-04T20:45:03.644Z,10.70
2018-09-04T20:47:32.180Z,10.90
2018-09-04T20:50:00.701Z,11.30
2018-09-04T20:52:29.395Z,10.43
2018-09-04T20:54:57.889Z,8.95
2018-09-04T20:57:30.630Z,9.00
2018-09-04T21:00:18.958Z,8.75
2018-09-04T21:02:58.786Z,8.65
2018-09-04T21:05:38.521Z,8.50
2018-09-04T21:08:48.864Z,8.33
2018-09-04T21:11:17.559Z,9.10
2018-09-04T21:13:46.120Z,8.63
2018-09-04T21:16:14.622Z,8.65
2018-09-04T21:18:43.130Z,8.55
2018-09-04T21:21:11.639Z,8.70
2018-09-04T21:23:40.251Z,8.95
2018-09-04T21:26:08.744Z,9.13
2018-09-04T21:28:37.844Z,13.00
2018-09-04T21:31:06.472Z,19.37
2018-09-04T21:33:35.070Z,15.28
2018-09-04T21:36:03.914Z,17.07
2018-09-04T21:38:32.607Z,19.27
2018-09-04T21:41:01.816Z,22.30
2018-09-04T21:43:30.343Z,19.82
2018-09-04T21:45:58.889Z,17.98
2018-09-04T21:48:27.445Z,15.40
2018-09-04T21:50:56.027Z,12.63
2018-09-04T21:53:25.175Z,12.25
2018-09-04T21:55:53.693Z,11.83
